Terminal Aerodrome Forecast
Issued by NWS

Home | Current Version | Previous Version | Text Only | Print | Product List | Glossary On
Versions: 1 2 3 4 5 6 7 8 9 10 11 12 13 14 15 16 17 18 19 20 21 22 23 24 25 26 27 28 29 30
033
FTUS43 KDMX 210509 AAC
TAFOTM
TAF AMD
KOTM 210509Z 2105/2124 00000KT P6SM VCTS SCT035CB
      TEMPO 2105/2107 VRB15G25KT 5SM -TSRA SCT025CB BKN035
     FM211800 18010KT P6SM FEW220=

USA.gov is the U.S. government's official web portal to all federal, state and local government web resources and services.